Time;durP1;ratioP1;P1;durP2;ratioP2;P2;SDS_P1;SDS_P2;PMS_P1;PMS_P2;Temp;Humidity;BMP_temperature;BMP_pressure;BME280_temperature;BME280_humidity;BME280_pressure;Samples;Min_cycle;Max_cycle;Signal;HPM_P1;HPM_P2
2024/03/15 00:01:58;;;;;;;6.07;3.53;;;;;;;12.18;100.00;100700.13;5090322;28;20087;-40
2024/03/15 00:04:23;;;;;;;5.47;3.50;;;;;;;12.17;100.00;100705.81;5090314;28;20028;-40
2024/03/15 00:06:49;;;;;;;3.97;3.57;;;;;;;12.02;100.00;100677.38;5078691;28;20020;-39
2024/03/15 00:09:14;;;;;;;4.60;3.27;;;;;;;12.07;100.00;100687.47;5076087;28;20341;-39
2024/03/15 00:11:40;;;;;;;4.95;3.58;;;;;;;12.04;100.00;100688.78;5075813;28;20296;-39
2024/03/15 00:14:05;;;;;;;4.65;3.50;;;;;;;12.04;100.00;100691.47;5076021;28;20017;-39
2024/03/15 00:16:30;;;;;;;5.25;3.50;;;;;;;12.05;100.00;100689.59;5076042;28;20075;-39
2024/03/15 00:18:57;;;;;;;5.03;3.77;;;;;;;12.01;100.00;100685.75;5076633;28;20029;-39
2024/03/15 00:21:23;;;;;;;4.05;3.65;;;;;;;12.03;100.00;100695.25;5075885;28;20291;-39
2024/03/15 00:23:51;;;;;;;4.97;3.70;;;;;;;12.00;100.00;100689.50;5076564;28;20025;-39
2024/03/15 00:26:16;;;;;;;6.95;3.45;;;;;;;12.00;100.00;100689.50;5075762;28;20031;-39
2024/03/15 00:28:42;;;;;;;4.85;3.47;;;;;;;11.96;100.00;100683.78;5076387;28;20020;-39
2024/03/15 00:31:07;;;;;;;6.40;3.90;;;;;;;11.93;100.00;100675.31;5075756;28;20126;-39
2024/03/15 00:33:33;;;;;;;4.47;3.20;;;;;;;12.02;100.00;100682.78;5076180;28;20062;-39
2024/03/15 00:35:58;;;;;;;5.20;3.53;;;;;;;11.99;100.00;100680.56;5075849;28;20021;-39
2024/03/15 00:38:23;;;;;;;8.17;4.20;;;;;;;12.01;100.00;100681.16;5075451;28;20031;-39
2024/03/15 00:40:49;;;;;;;6.20;4.00;;;;;;;12.01;100.00;100683.88;5075271;28;20016;-39
2024/03/15 00:43:16;;;;;;;4.80;3.47;;;;;;;11.96;100.00;100677.53;5075769;28;20261;-39
2024/03/15 00:45:43;;;;;;;5.60;3.70;;;;;;;11.96;100.00;100661.28;5075392;28;20657;-40
2024/03/15 00:48:09;;;;;;;5.07;3.40;;;;;;;12.02;100.00;100676.56;5075704;28;20020;-40
2024/03/15 00:50:35;;;;;;;4.13;3.72;;;;;;;12.00;100.00;100671.34;5075099;28;20062;-40
2024/03/15 00:53:00;;;;;;;6.78;4.07;;;;;;;11.95;100.00;100668.56;5075547;28;20028;-40
2024/03/15 00:55:30;;;;;;;4.85;3.85;;;;;;;11.89;100.00;100661.41;5076358;28;20044;-40
2024/03/15 00:57:56;;;;;;;5.20;3.72;;;;;;;11.95;100.00;100670.44;5075225;28;20074;-40
2024/03/15 01:00:21;;;;;;;6.40;3.85;;;;;;;11.93;100.00;100673.41;5075982;28;20020;-40
2024/03/15 01:02:47;;;;;;;5.10;3.80;;;;;;;11.89;100.00;100671.44;5075151;28;20036;-40
2024/03/15 01:05:12;;;;;;;4.25;3.75;;;;;;;11.87;100.00;100668.97;5075392;28;20103;-40
2024/03/15 01:07:37;;;;;;;3.80;3.40;;;;;;;11.88;100.00;100665.19;5075085;28;20020;-40
2024/03/15 01:10:03;;;;;;;4.90;3.30;;;;;;;11.87;100.00;100662.75;5075584;28;20071;-40
2024/03/15 01:12:28;;;;;;;5.43;3.70;;;;;;;11.86;100.00;100659.22;5074942;28;20255;-40
2024/03/15 01:14:54;;;;;;;4.37;3.60;;;;;;;11.86;100.00;100653.78;5075112;28;20488;-40
2024/03/15 01:17:19;;;;;;;5.47;3.78;;;;;;;11.82;100.00;100647.22;5073843;28;20017;-39
2024/03/15 01:19:45;;;;;;;6.70;3.97;;;;;;;11.86;100.00;100659.22;5074572;28;20372;-40
2024/03/15 01:22:10;;;;;;;5.82;3.67;;;;;;;11.86;100.00;100656.50;5074643;28;20259;-40
2024/03/15 01:24:36;;;;;;;5.40;3.85;;;;;;;11.86;100.00;100653.78;5074633;28;20032;-40
2024/03/15 01:27:01;;;;;;;6.00;4.10;;;;;;;11.83;100.00;100643.44;5075372;28;20024;-40
2024/03/15 01:29:28;;;;;;;7.10;3.73;;;;;;;11.89;100.00;100653.28;5074845;28;20263;-40
2024/03/15 01:31:53;;;;;;;6.50;3.92;;;;;;;11.89;100.00;100656.00;5074502;28;20023;-39
2024/03/15 01:34:18;;;;;;;6.45;4.00;;;;;;;11.89;100.00;100645.16;5074115;28;20029;-39
2024/03/15 01:36:44;;;;;;;4.38;3.92;;;;;;;11.91;100.00;100645.75;5074176;28;20020;-40
2024/03/15 01:39:09;;;;;;;5.80;3.85;;;;;;;11.93;100.00;100635.47;5073182;28;20024;-40
2024/03/15 01:41:34;;;;;;;6.82;3.75;;;;;;;11.95;100.00;100638.75;5075079;28;20131;-39
2024/03/15 01:44:00;;;;;;;5.22;3.47;;;;;;;11.95;100.00;100640.63;5074057;28;20068;-39
2024/03/15 01:46:26;;;;;;;5.07;3.58;;;;;;;11.97;100.00;100644.75;5074743;28;20019;-39
2024/03/15 01:48:52;;;;;;;6.18;3.78;;;;;;;11.97;100.00;100642.06;5074533;28;20024;-39
2024/03/15 01:51:17;;;;;;;5.97;4.05;;;;;;;11.98;100.00;100638.28;5074109;28;20023;-39
2024/03/15 01:53:43;;;;;;;8.52;4.22;;;;;;;11.99;100.00;100639.09;5073961;28;20052;-39
2024/03/15 01:56:09;;;;;;;5.28;3.78;;;;;;;11.94;100.00;100628.97;5073778;28;20050;-39
2024/03/15 01:58:36;;;;;;;4.97;3.47;;;;;;;12.01;100.00;100632.38;5074398;28;20033;-40
2024/03/15 02:01:02;;;;;;;4.38;3.50;;;;;;;11.95;100.00;100638.75;5073903;28;20024;-39
2024/03/15 02:03:29;;;;;;;4.50;3.50;;;;;;;11.97;100.00;100636.63;5074562;28;20024;-39
2024/03/15 02:05:55;;;;;;;6.45;3.53;;;;;;;11.99;100.00;100637.19;5074210;28;20027;-39
2024/03/15 02:08:21;;;;;;;;;;;;;;;12.05;100.00;100641.66;5074611;28;20023;-39
2024/03/15 02:10:46;;;;;;;4.55;3.30;;;;;;;12.00;100.00;100632.59;5073537;28;19904;-40
2024/03/15 02:13:15;;;;;;;4.97;3.40;;;;;;;12.05;100.00;100638.94;5073781;28;20028;-39
2024/03/15 02:15:41;;;;;;;5.15;3.50;;;;;;;12.05;100.00;100628.09;5074184;28;20460;-39
2024/03/15 02:18:07;;;;;;;5.25;3.00;;;;;;;12.07;100.00;100641.41;5074531;28;20027;-39
2024/03/15 02:20:32;;;;;;;8.77;3.92;;;;;;;12.08;100.00;100635.72;5073724;28;20108;-39
2024/03/15 02:22:58;;;;;;;5.40;3.35;;;;;;;12.08;100.00;100638.44;5073680;28;20338;-39
2024/03/15 02:25:23;;;;;;;5.82;3.03;;;;;;;12.06;100.00;100634.34;5073366;28;20456;-40
2024/03/15 02:27:49;;;;;;;3.55;2.97;;;;;;;12.08;100.00;100633.00;5073337;28;20020;-39
2024/03/15 02:30:16;;;;;;;5.27;3.10;;;;;;;12.11;100.00;100631.72;5073183;28;20405;-39
2024/03/15 02:32:41;;;;;;;5.15;3.30;;;;;;;12.09;100.00;100640.06;5073186;28;20258;-40
2024/03/15 02:35:07;;;;;;;4.88;3.30;;;;;;;12.11;100.00;100637.97;5073453;28;20035;-40
2024/03/15 02:37:33;;;;;;;4.22;3.35;;;;;;;12.10;100.00;100639.03;5073404;28;20020;-40
2024/03/15 02:39:58;;;;;;;4.82;3.08;;;;;;;12.12;100.00;100641.50;5074259;28;20420;-40
2024/03/15 02:42:24;;;;;;;5.50;2.88;;;;;;;12.14;100.00;100638.53;5073143;28;20056;-40
2024/03/15 02:44:49;;;;;;;4.90;3.27;;;;;;;12.16;100.00;100636.41;5073884;28;20103;-40
2024/03/15 02:47:15;;;;;;;4.33;2.63;;;;;;;12.12;100.00;100627.94;5073041;28;20270;-39
2024/03/15 02:49:40;;;;;;;4.80;3.08;;;;;;;12.11;100.00;100637.97;5073609;28;20027;-39
2024/03/15 02:52:06;;;;;;;4.60;2.80;;;;;;;12.15;100.00;100638.28;5074104;28;20045;-39
2024/03/15 02:54:31;;;;;;;;;;;;;;;12.20;100.00;100640.25;5073722;28;20489;-39
2024/03/15 02:56:57;;;;;;;4.93;2.90;;;;;;;12.11;100.00;100643.38;5073265;28;20015;-39
2024/03/15 02:59:23;;;;;;;3.50;2.72;;;;;;;12.16;100.00;100644.53;5073232;28;20112;-39
2024/03/15 03:01:50;;;;;;;5.88;2.63;;;;;;;12.11;100.00;100632.53;5073208;28;20017;-39
2024/03/15 03:04:15;;;;;;;5.03;2.70;;;;;;;12.20;100.00;100648.38;5074010;28;20020;-39
2024/03/15 03:06:42;;;;;;;8.13;2.88;;;;;;;12.20;100.00;100645.66;5073112;28;20017;-40
2024/03/15 03:09:09;;;;;;;5.30;2.75;;;;;;;12.13;100.00;100639.59;5073278;28;20021;-40
2024/03/15 03:11:36;;;;;;;4.60;2.90;;;;;;;12.16;100.00;100649.97;5072861;28;20387;-40
2024/03/15 03:14:02;;;;;;;6.53;3.22;;;;;;;12.13;100.00;100645.00;5072745;28;20017;-40
2024/03/15 03:16:27;;;;;;;3.17;2.88;;;;;;;12.01;100.00;100632.38;5072657;28;20465;-40
2024/03/15 03:18:53;;;;;;;4.00;2.93;;;;;;;12.06;100.00;100643.28;5072729;28;20056;-39
2024/03/15 03:21:18;;;;;;;4.15;2.78;;;;;;;12.11;100.00;100647.97;5073122;28;20020;-40
2024/03/15 03:23:44;;;;;;;4.18;3.03;;;;;;;12.10;100.00;100652.59;5072645;28;20079;-40
2024/03/15 03:26:10;;;;;;;5.90;3.40;;;;;;;12.10;100.00;100647.16;5072653;28;20023;-40
2024/03/15 03:28:36;;;;;;;4.80;2.90;;;;;;;12.12;100.00;100646.91;5072756;28;20356;-39
2024/03/15 03:31:02;;;;;;;8.65;3.33;;;;;;;12.11;100.00;100651.50;5072987;28;20070;-40
2024/03/15 03:33:28;;;;;;;5.55;2.85;;;;;;;12.10;100.00;100651.72;5073706;28;20082;-39
2024/03/15 03:35:55;;;;;;;;;;;;;;;12.20;100.00;100656.50;5073328;28;20029;-39
2024/03/15 03:38:20;;;;;;;6.40;3.17;;;;;;;12.11;100.00;100656.94;5073683;28;20027;-39
2024/03/15 03:40:45;;;;;;;6.10;2.90;;;;;;;12.10;100.00;100659.88;5073797;28;20460;-39
2024/03/15 03:43:11;;;;;;;6.83;2.93;;;;;;;12.10;100.00;100659.88;5076553;28;20047;-40
2024/03/15 03:45:36;;;;;;;4.73;2.90;;;;;;;12.10;100.00;100652.59;5076901;28;20283;-39
2024/03/15 03:48:03;;;;;;;5.47;2.85;;;;;;;12.09;100.00;100647.38;5076516;28;20016;-39
2024/03/15 03:50:28;;;;;;;6.05;2.72;;;;;;;12.05;100.00;100648.94;5076434;28;20524;-39
2024/03/15 03:52:53;;;;;;;4.72;3.17;;;;;;;12.10;100.00;100652.59;5076671;28;20104;-41
2024/03/15 03:55:19;;;;;;;3.47;2.87;;;;;;;12.09;100.00;100655.53;5076879;28;20467;-40
2024/03/15 03:57:45;;;;;;;7.53;3.20;;;;;;;12.05;100.00;100652.50;5076313;28;20262;-40
2024/03/15 04:00:16;;;;;;;6.07;3.13;;;;;;;12.11;100.00;100653.41;5076544;28;20398;-40
2024/03/15 04:02:46;;;;;;;4.82;2.90;;;;;;;12.07;100.00;100655.78;5076825;28;20031;-40
2024/03/15 04:05:18;;;;;;;4.55;2.80;;;;;;;11.97;100.00;100636.63;5077048;28;20028;-40
2024/03/15 04:07:44;;;;;;;6.13;3.33;;;;;;;12.04;100.00;100652.72;5076256;28;20020;-40
2024/03/15 04:10:09;;;;;;;5.65;2.95;;;;;;;12.04;100.00;100658.16;5076697;28;20020;-40
2024/03/15 04:12:35;;;;;;;4.82;2.80;;;;;;;12.07;100.00;100658.47;5076859;28;20445;-40
2024/03/15 04:15:05;;;;;;;4.15;2.90;;;;;;;12.08;100.00;100668.25;5076852;28;20034;-40
2024/03/15 04:17:31;;;;;;;5.30;2.90;;;;;;;12.06;100.00;100666.88;5075981;28;20407;-40
2024/03/15 04:19:58;;;;;;;5.32;2.78;;;;;;;12.00;100.00;100657.81;5076073;28;20028;-40
2024/03/15 04:22:27;;;;;;;3.25;2.80;;;;;;;12.03;100.00;100665.47;5075586;28;20519;-40
2024/03/15 04:24:54;;;;;;;7.07;2.65;;;;;;;12.08;100.00;100664.72;5076444;28;20070;-40
2024/03/15 04:27:20;;;;;;;4.05;3.00;;;;;;;12.05;100.00;100657.91;5076036;28;20522;-40
2024/03/15 04:29:45;;;;;;;3.83;2.58;;;;;;;12.11;100.00;100658.81;5075913;28;20028;-40
2024/03/15 04:32:11;;;;;;;6.50;3.00;;;;;;;12.10;100.00;100658.00;5075513;28;20024;-40
2024/03/15 04:34:40;;;;;;;6.50;3.25;;;;;;;12.10;100.00;100659.88;5075632;28;20039;-40
2024/03/15 04:37:09;;;;;;;4.88;3.00;;;;;;;12.12;100.00;100660.47;5075234;28;20484;-40
2024/03/15 04:39:35;;;;;;;6.13;3.05;;;;;;;12.11;100.00;100651.50;5076434;28;20386;-40
2024/03/15 04:42:03;;;;;;;3.85;2.72;;;;;;;12.16;100.00;100652.66;5075918;28;20031;-40
2024/03/15 04:44:32;;;;;;;3.55;2.42;;;;;;;12.10;100.00;100640.91;5075129;28;20025;-40
2024/03/15 04:46:57;;;;;;;6.15;2.72;;;;;;;12.13;100.00;100653.16;5075351;28;20099;-40
2024/03/15 04:49:22;;;;;;;;;;;;;;;12.23;100.00;100656.03;5076375;28;20040;-40
2024/03/15 04:51:48;;;;;;;4.10;2.53;;;;;;;12.19;100.00;100654.88;5074943;28;19911;-40
2024/03/15 04:54:13;;;;;;;3.90;2.67;;;;;;;12.20;100.00;100653.78;5075082;28;20044;-40
2024/03/15 04:56:39;;;;;;;3.63;2.65;;;;;;;12.19;100.00;100646.72;5074980;28;20029;-40
2024/03/15 04:59:04;;;;;;;4.13;2.50;;;;;;;12.15;100.00;100637.44;5074975;28;20052;-40
2024/03/15 05:01:29;;;;;;;4.33;3.00;;;;;;;12.16;100.00;100637.22;5075697;28;20078;-40
2024/03/15 05:03:55;;;;;;;5.07;3.25;;;;;;;12.23;100.00;100654.13;5075716;28;20255;-40
2024/03/15 05:06:20;;;;;;;4.40;2.78;;;;;;;12.25;100.00;100653.88;5075059;28;20078;-39
2024/03/15 05:08:45;;;;;;;4.50;2.33;;;;;;;12.26;100.00;100647.41;5075649;28;20021;-39
2024/03/15 05:11:13;;;;;;;4.82;2.67;;;;;;;12.19;100.00;100646.72;5074944;28;20017;-39
2024/03/15 05:13:38;;;;;;;4.32;2.72;;;;;;;12.25;100.00;100653.88;5075369;28;20100;-39
2024/03/15 05:16:04;;;;;;;3.92;2.78;;;;;;;12.25;100.00;100657.44;5075410;28;20418;-39
2024/03/15 05:18:29;;;;;;;4.78;2.65;;;;;;;12.26;100.00;100660.97;5075326;28;20025;-40
2024/03/15 05:20:55;;;;;;;4.88;2.50;;;;;;;12.26;100.00;100660.97;5075249;28;20024;-39
2024/03/15 05:23:21;;;;;;;4.88;2.75;;;;;;;12.22;100.00;100646.25;5075274;28;20502;-40
2024/03/15 05:25:46;;;;;;;7.23;2.50;;;;;;;12.25;100.00;100665.56;5074755;28;20035;-40
2024/03/15 05:28:11;;;;;;;4.63;2.60;;;;;;;12.27;100.00;100657.19;5074653;28;20293;-40
2024/03/15 05:30:37;;;;;;;5.03;2.58;;;;;;;12.27;100.00;100659.88;5074895;28;20021;-39
2024/03/15 05:33:02;;;;;;;6.13;2.70;;;;;;;12.26;100.00;100660.97;5074989;28;20017;-39
2024/03/15 05:35:29;;;;;;;4.28;2.70;;;;;;;12.29;100.00;100663.16;5074946;28;20279;-40
2024/03/15 05:37:54;;;;;;;3.60;2.63;;;;;;;12.28;100.00;100664.25;5074380;28;20027;-40
2024/03/15 05:40:21;;;;;;;5.55;2.60;;;;;;;12.24;100.00;100658.47;5074364;28;20025;-39
2024/03/15 05:42:47;;;;;;;6.05;2.40;;;;;;;12.26;100.00;100671.81;5075103;28;20024;-39
2024/03/15 05:45:13;;;;;;;3.85;2.63;;;;;;;12.27;100.00;100673.44;5075111;28;20346;-39
2024/03/15 05:47:39;;;;;;;5.72;2.90;;;;;;;12.21;100.00;100664.41;5074001;28;20082;-39
2024/03/15 05:50:06;;;;;;;5.95;3.13;;;;;;;12.25;100.00;100675.56;5074046;28;20020;-39
2024/03/15 05:52:34;;;;;;;4.75;2.65;;;;;;;12.18;100.00;100666.78;5073838;28;20491;-39
2024/03/15 05:55:00;;;;;;;4.55;2.58;;;;;;;12.17;100.00;100662.44;5074972;28;20044;-39
2024/03/15 05:57:29;;;;;;;4.50;2.65;;;;;;;12.22;100.00;100668.75;5072868;28;20046;-39
2024/03/15 05:59:55;;;;;;;4.18;2.28;;;;;;;12.22;100.00;100674.19;5074561;28;20025;-39
2024/03/15 06:02:20;;;;;;;4.40;2.80;;;;;;;12.14;100.00;100661.03;5073720;28;20364;-39
2024/03/15 06:04:46;;;;;;;3.83;2.38;;;;;;;12.20;100.00;100675.47;5073452;28;20028;-39
2024/03/15 06:07:11;;;;;;;4.38;2.50;;;;;;;12.09;100.00;100655.53;5073851;28;20066;-39
2024/03/15 06:09:38;;;;;;;7.78;2.90;;;;;;;12.15;100.00;100672.69;5074456;28;20476;-39
2024/03/15 06:12:04;;;;;;;4.60;2.70;;;;;;;12.18;100.00;100677.63;5073700;28;20012;-39
2024/03/15 06:14:29;;;;;;;6.38;2.53;;;;;;;12.20;100.00;100683.63;5073991;28;20080;-39
2024/03/15 06:16:55;;;;;;;6.38;2.88;;;;;;;12.13;100.00;100672.94;5073773;28;20449;-39
2024/03/15 06:19:22;;;;;;;4.50;2.13;;;;;;;12.22;100.00;100684.19;5074170;28;20103;-39
2024/03/15 06:21:49;;;;;;;6.25;2.53;;;;;;;12.18;100.00;100680.34;5073638;28;20270;-39
2024/03/15 06:24:18;;;;;;;3.88;2.40;;;;;;;12.24;100.00;100695.63;5073641;28;20024;-40
2024/03/15 06:26:43;;;;;;;4.93;2.45;;;;;;;12.26;100.00;100691.59;5073614;28;20360;-39
2024/03/15 06:29:10;;;;;;;5.55;2.38;;;;;;;12.27;100.00;100692.41;5074146;28;20024;-40
2024/03/15 06:31:37;;;;;;;4.25;2.20;;;;;;;12.27;100.00;100678.88;5073547;28;20020;-40
2024/03/15 06:34:07;;;;;;;3.55;2.00;;;;;;;12.26;100.00;100671.81;5073492;28;20020;-39
2024/03/15 06:36:41;;;;;;;3.72;2.40;;;;;;;12.22;100.00;100670.66;5073464;28;20020;-39
2024/03/15 06:39:22;;;;;;;5.95;2.55;;;;;;;12.26;100.00;100677.22;5074010;28;20036;-40
2024/03/15 06:41:51;;;;;;;3.50;2.22;;;;;;;12.26;100.00;100688.91;5073196;28;20016;-39
2024/03/15 06:47:04;;;;;;;3.50;1.98;;;;;;;12.30;100.00;100689.22;5073984;28;20413;-39
2024/03/15 06:49:43;;;;;;;5.18;2.05;;;;;;;12.31;100.00;100680.03;5072972;28;20067;-39
2024/03/15 06:54:56;;;;;;;4.72;2.35;;;;;;;12.33;100.00;100705.00;5073648;28;20105;-40
2024/03/15 06:57:22;;;;;;;4.50;2.00;;;;;;;12.32;100.00;100701.47;5073302;28;20437;-39
2024/03/15 06:59:48;;;;;;;3.85;1.98;;;;;;;12.37;100.00;100701.53;5073329;28;20024;-39
2024/03/15 07:02:14;;;;;;;3.13;2.00;;;;;;;12.40;100.00;100713.81;5072925;28;20100;-39
2024/03/15 07:04:39;;;;;;;5.03;1.88;;;;;;;12.45;100.00;100715.78;5074132;28;20108;-40
2024/03/15 07:07:06;;;;;;;4.85;2.15;;;;;;;12.52;100.00;100713.72;5073202;28;20021;-39
2024/03/15 07:09:31;;;;;;;3.25;2.20;;;;;;;12.62;100.00;100725.53;5073463;28;20509;-39
2024/03/15 07:11:58;;;;;;;5.20;1.92;;;;;;;12.62;100.00;100714.69;5073233;28;20032;-39
2024/03/15 07:14:23;;;;;;;5.72;2.00;;;;;;;12.63;100.00;100718.22;5073382;28;20376;-39
2024/03/15 07:16:48;;;;;;;;;;;;;;;12.70;100.00;100720.78;5076522;28;20021;-39
2024/03/15 07:19:15;;;;;;;2.97;1.77;;;;;;;12.68;100.00;100720.19;5076942;28;20343;-39
2024/03/15 07:21:41;;;;;;;3.50;1.80;;;;;;;12.70;100.00;100716.16;5077064;28;20052;-40
2024/03/15 07:24:07;;;;;;;4.20;2.15;;;;;;;12.72;100.00;100711.31;5077328;28;20364;-39
2024/03/15 07:26:34;;;;;;;4.13;1.77;;;;;;;12.73;100.00;100706.69;5077527;28;20028;-40
2024/03/15 07:29:00;;;;;;;4.03;1.85;;;;;;;12.73;100.00;100706.69;5076970;28;20024;-39
2024/03/15 07:31:26;;;;;;;3.28;1.80;;;;;;;12.78;100.00;100717.63;5076697;28;20031;-40
2024/03/15 07:33:52;;;;;;;3.63;1.65;;;;;;;12.78;100.00;100713.03;5077380;28;20028;-40
2024/03/15 07:36:20;;;;;;;4.80;2.47;;;;;;;12.83;100.00;100712.28;5076872;28;20341;-40
2024/03/15 07:38:47;;;;;;;5.30;1.98;;;;;;;12.84;100.00;100717.47;5077070;28;20367;-39
2024/03/15 07:41:13;;;;;;;3.70;1.88;;;;;;;12.87;100.00;100721.56;5076703;28;20074;-39
2024/03/15 07:43:38;;;;;;;5.60;1.80;;;;;;;12.87;100.00;100721.56;5076985;28;20016;-40
2024/03/15 07:46:05;;;;;;;4.43;2.10;;;;;;;12.85;100.00;100708.25;5077380;28;20021;-40
2024/03/15 07:48:33;;;;;;;3.40;2.05;;;;;;;12.90;100.00;100729.22;5076858;28;20035;-40
2024/03/15 07:50:58;;;;;;;5.20;1.88;;;;;;;12.90;100.00;100721.06;5076437;28;20459;-39
2024/03/15 07:53:23;;;;;;;;;;;;;;;12.99;100.00;100724.19;5076699;28;20021;-40
2024/03/15 07:55:50;;;;;;;4.60;1.65;;;;;;;12.98;100.00;100725.25;5077502;28;19919;-40
2024/03/15 07:58:15;;;;;;;5.10;2.00;;;;;;;12.95;100.00;100723.88;5076406;28;20029;-39
2024/03/15 08:00:43;;;;;;;;;;;;;;;13.08;100.00;100734.38;5076784;28;20024;-40
2024/03/15 08:03:08;;;;;;;5.07;2.00;;;;;;;13.06;100.00;100735.69;5076624;28;20351;-40
2024/03/15 08:05:33;;;;;;;4.65;2.17;;;;;;;13.10;100.00;100732.22;5076513;28;20029;-39
2024/03/15 08:07:59;;;;;;;3.90;1.83;;;;;;;13.18;100.00;100724.72;5076207;28;20098;-40
2024/03/15 08:10:24;;;;;;;3.15;1.85;;;;;;;13.22;100.00;100731.31;5076815;28;20579;-39
2024/03/15 08:12:50;;;;;;;2.92;1.90;;;;;;;13.25;100.00;100739.78;5076670;28;20024;-40
2024/03/15 08:15:16;;;;;;;3.67;1.95;;;;;;;13.20;100.00;100728.81;5076073;28;20107;-40
2024/03/15 08:17:43;;;;;;;4.20;1.67;;;;;;;13.20;100.00;100728.00;5076052;28;20021;-40
2024/03/15 08:20:10;;;;;;;3.42;1.60;;;;;;;13.19;100.00;100732.63;5076837;28;20017;-40
2024/03/15 08:22:37;;;;;;;4.55;1.83;;;;;;;13.19;100.00;100742.66;5075969;28;20020;-40
2024/03/15 08:25:02;;;;;;;5.03;2.35;;;;;;;13.15;100.00;100750.47;5075958;28;20024;-40
2024/03/15 08:27:29;;;;;;;3.42;2.13;;;;;;;13.04;100.00;100735.94;5075651;28;20017;-40
2024/03/15 08:29:56;;;;;;;4.82;2.08;;;;;;;13.07;100.00;100754.44;5076421;28;20342;-40
2024/03/15 08:32:22;;;;;;;3.03;1.63;;;;;;;13.04;100.00;100738.66;5075480;28;20021;-40
2024/03/15 08:34:48;;;;;;;5.00;2.08;;;;;;;13.05;100.00;100747.63;5076527;28;20291;-39
2024/03/15 08:37:14;;;;;;;;;;;;;;;13.12;100.00;100742.81;5075824;28;20051;-40
2024/03/15 08:39:39;;;;;;;4.50;1.80;;;;;;;13.06;100.00;100741.94;5076516;28;20324;-39
2024/03/15 08:42:04;;;;;;;6.27;2.47;;;;;;;13.05;100.00;100734.88;5075668;28;20016;-39
2024/03/15 08:44:32;;;;;;;4.68;1.63;;;;;;;13.13;100.00;100745.31;5076401;28;20386;-39
2024/03/15 08:46:57;;;;;;;2.97;1.67;;;;;;;13.16;100.00;100752.13;5075439;28;20138;-39
2024/03/15 08:49:23;;;;;;;3.13;1.77;;;;;;;13.24;100.00;100743.56;5076349;28;20055;-40
2024/03/15 08:51:49;;;;;;;;;;;;;;;13.36;100.00;100751.59;5075819;28;20021;-39
2024/03/15 08:54:15;;;;;;;2.00;1.30;;;;;;;13.39;100.00;100756.53;5076133;28;19981;-39
2024/03/15 08:56:41;;;;;;;4.22;1.40;;;;;;;13.43;100.00;100754.16;5076059;28;20035;-39
2024/03/15 08:59:06;;;;;;;;;;;;;;;13.49;100.00;100767.53;5076084;28;20099;-40
2024/03/15 09:01:35;;;;;;;4.78;1.60;;;;;;;13.39;100.00;100770.13;5075293;28;20356;-39
2024/03/15 09:04:04;;;;;;;3.20;1.15;;;;;;;13.28;100.00;100769.16;5076015;28;20032;-39
2024/03/15 09:06:30;;;;;;;2.92;1.40;;;;;;;13.21;100.00;100765.75;5074795;28;20020;-39
2024/03/15 09:08:56;;;;;;;4.50;1.92;;;;;;;13.18;100.00;100773.59;5075159;28;20043;-39
2024/03/15 09:11:22;;;;;;;3.40;1.23;;;;;;;13.13;100.00;100772.44;5074734;28;20024;-39
2024/03/15 09:13:47;;;;;;;;;;;;;;;13.23;100.00;100773.69;5075311;28;20016;-39
2024/03/15 09:16:13;;;;;;;3.40;1.48;;;;;;;13.17;100.00;100774.66;5074876;28;19934;-40
2024/03/15 09:18:38;;;;;;;;;;;;;;;13.25;100.00;100772.38;5075848;28;20029;-40
2024/03/15 09:21:06;;;;;;;4.35;1.70;;;;;;;13.17;100.00;100770.03;5074765;28;19908;-40
2024/03/15 09:23:32;;;;;;;3.80;1.80;;;;;;;13.04;100.00;100763.09;5075296;28;20021;-40
2024/03/15 09:25:58;;;;;;;3.50;1.77;;;;;;;13.00;100.00;100772.78;5074484;28;20086;-40
2024/03/15 09:28:26;;;;;;;4.00;1.92;;;;;;;12.99;100.00;100773.88;5075556;28;20118;-39
2024/03/15 09:30:54;;;;;;;4.30;1.67;;;;;;;12.87;100.00;100759.56;5074649;28;20074;-40
2024/03/15 09:33:23;;;;;;;4.70;2.10;;;;;;;12.91;100.00;100785.13;5074674;28;20078;-39
2024/03/15 09:35:49;;;;;;;6.60;1.80;;;;;;;12.92;100.00;100777.81;5074406;28;20070;-40
2024/03/15 09:38:15;;;;;;;;;;;;;;;13.04;100.00;100782.09;5074127;28;20020;-39
2024/03/15 09:40:40;;;;;;;6.53;1.92;;;;;;;13.04;100.00;100782.09;5074138;28;19999;-39
2024/03/15 09:43:13;;;;;;;6.38;2.00;;;;;;;13.09;100.00;100779.44;5074490;28;20052;-40
2024/03/15 09:45:39;;;;;;;4.22;2.17;;;;;;;13.20;100.00;100776.88;5074874;28;20024;-40
2024/03/15 09:48:10;;;;;;;4.63;1.60;;;;;;;13.51;100.00;100775.41;5074580;28;20115;-40
2024/03/15 09:50:39;;;;;;;2.30;1.45;;;;;;;13.81;100.00;100775.81;5074517;28;20508;-40
2024/03/15 09:53:09;;;;;;;4.28;2.22;;;;;;;14.00;100.00;100767.31;5074177;28;20032;-40
2024/03/15 09:55:34;;;;;;;3.83;1.52;;;;;;;14.29;100.00;100773.31;5075082;28;20044;-40
2024/03/15 09:58:04;;;;;;;4.07;1.67;;;;;;;14.38;100.00;100767.16;5074986;28;20089;-40
2024/03/15 10:00:30;;;;;;;2.92;1.33;;;;;;;14.53;100.00;100771.94;5074077;28;20078;-39
2024/03/15 10:02:56;;;;;;;4.50;1.42;;;;;;;14.60;100.00;100771.75;5074576;28;20024;-40
2024/03/15 10:05:22;;;;;;;;;;;;;;;14.65;100.00;100777.22;5074389;28;20029;-39
2024/03/15 10:07:48;;;;;;;6.10;1.88;;;;;;;14.47;100.00;100770.22;5074756;28;19913;-39
2024/03/15 10:10:13;;;;;;;;;;;;;;;14.58;100.00;100771.16;5074411;28;20100;-39
2024/03/15 10:12:44;;;;;;;4.25;1.50;;;;;;;14.64;100.00;100765.53;5074103;28;19950;-39
2024/03/15 10:15:13;;;;;;;4.82;1.67;;;;;;;14.68;100.00;100766.63;5074064;28;20024;-39
2024/03/15 10:17:39;;;;;;;5.57;1.60;;;;;;;14.70;100.00;100763.66;5073756;28;20399;-40
2024/03/15 10:20:15;;;;;;;4.38;1.23;;;;;;;14.71;100.00;100756.31;5073768;28;20028;-40
2024/03/15 10:22:41;;;;;;;5.20;1.95;;;;;;;14.74;100.00;100761.22;5073708;28;20016;-40
2024/03/15 10:25:16;;;;;;;6.25;1.50;;;;;;;14.84;100.00;100766.75;5074491;28;20053;-40
2024/03/15 10:27:43;;;;;;;6.28;2.17;;;;;;;14.87;100.00;100766.22;5073697;28;20051;-40
2024/03/15 10:30:22;;;;;;;5.03;1.50;;;;;;;14.93;100.00;100773.34;5073648;28;20113;-40
2024/03/15 10:32:49;;;;;;;4.07;1.70;;;;;;;14.88;100.00;100774.16;5073600;28;20456;-40
2024/03/15 10:35:16;;;;;;;7.72;2.00;;;;;;;14.73;100.00;100771.28;5073509;28;20100;-40
2024/03/15 10:37:43;;;;;;;4.32;1.50;;;;;;;14.74;100.00;100772.09;5073272;28;20025;-40
2024/03/15 10:40:17;;;;;;;3.25;1.50;;;;;;;14.74;100.00;100766.66;5073562;28;20020;-39
2024/03/15 10:42:47;;;;;;;6.03;1.58;;;;;;;14.67;100.00;100756.81;5073731;28;20017;-40
2024/03/15 10:45:13;;;;;;;3.50;1.20;;;;;;;14.66;100.00;100762.53;5073999;28;20054;-40
2024/03/15 10:47:40;;;;;;;5.70;1.45;;;;;;;14.57;100.00;100758.63;5073407;28;20435;-40
2024/03/15 10:50:11;;;;;;;4.40;1.23;;;;;;;14.55;100.00;100760.81;5073732;28;20028;-40
2024/03/15 10:52:40;;;;;;;3.95;1.30;;;;;;;14.42;100.00;100754.69;5073633;28;20017;-40
2024/03/15 10:55:16;;;;;;;4.53;1.30;;;;;;;14.47;100.00;100766.69;5073441;28;20102;-40
2024/03/15 10:57:42;;;;;;;3.88;1.42;;;;;;;14.39;100.00;100770.69;5073618;28;20045;-41
2024/03/15 11:00:19;;;;;;;;;;;;;;;14.41;100.00;100768.53;5073487;28;20461;-40
2024/03/15 11:02:46;;;;;;;5.90;1.30;;;;;;;14.22;100.00;100770.81;5073897;28;19992;-40
2024/03/15 11:05:30;;;;;;;3.40;1.40;;;;;;;14.20;100.00;100766.69;5073545;28;20107;-40
2024/03/15 11:08:16;;;;;;;4.50;1.30;;;;;;;14.11;100.00;100778.06;5073820;28;20056;-40
2024/03/15 11:11:02;;;;;;;4.13;1.43;;;;;;;14.05;100.00;100770.88;5074012;28;20032;-40
2024/03/15 11:13:36;;;;;;;5.47;1.60;;;;;;;13.86;100.00;100785.94;5072980;28;20045;-40
2024/03/15 11:16:16;;;;;;;4.50;1.10;;;;;;;13.69;100.00;100785.16;5073099;28;20066;-40
2024/03/15 11:18:41;;;;;;;3.42;1.38;;;;;;;13.58;100.00;100792.38;5073433;28;20020;-40
2024/03/15 11:21:18;;;;;;;4.63;1.40;;;;;;;13.42;100.00;100785.94;5073395;28;20116;-40
2024/03/15 11:23:44;;;;;;;4.75;1.35;;;;;;;13.32;100.00;100810.19;5073417;28;20259;-41
2024/03/15 11:26:09;;;;;;;4.57;1.50;;;;;;;13.13;100.00;100779.78;5073176;28;20470;-39